Almagrundet, Sweden

10:57 AM CEST on September 22, 2014 (GMT +0200)
ITROUVIL2 | Change Station
CLOSE
Current Station
Personal Weather Station
Location: Sandhamn, TROUVILLE
Elevation: 10 ft
Nearby Weather Stations

Elev 10 ft 59.28 °N, 18.93 °E | Updated 2 minutes ago

Light Rain
Light Rain
50.0 °F
Feels Like 43 °F
N
25.0
Wind Variable Wind from NNE
Gusts 32.0 mph

Today
High -- | Low -- °F
--% Chance of Precip.
Yesterday
High -- | Low -- °F
Precip. -- in
6:27 AM 6:43 PM
Waning Crescent, 3% visible
Pressure 29.62 in
Visibility 6.2 miles
Clouds Mostly Cloudy 900 ft
Windchill 43 °F
Dew Point 50 °F
Humidity 100%
Rainfall 0.00 in
Snow Depth Not available.
UV 1 out of 12
Pollen Not available.
Air Quality Not available.
Flu Activity Not available.
METAR ESSB 220850Z 35017KT 320V030 9999 -RA BKN009 09/08 Q1003

More Conditions Fewer Conditions

Pressure 29.62 in
Visibility 6.2 miles
Clouds Mostly Cloudy 900 ft
Windchill 43 °F
Dew Point 50 °F
Humidity 100%
Rainfall 0.00 in
Snow Depth Not available.
UV 1 out of 12
Pollen Not available.
Air Quality Not available.
Flu Activity Not available.
METAR ESSB 220850Z 35017KT 320V030 9999 -RA BKN009 09/08 Q1003

More Conditions Fewer Conditions

10-Day Weather Forecast

Almanac

Astronomy

Sep. 22, 2014 Rise Set
Actual Time 6:27 AM CEST 6:43 PM CEST
Civil Twilight 5:46 AM CEST 7:24 PM CEST
Nautical Twilight 4:57 AM CEST 8:12 PM CEST
Astronomical Twilight 4:04 AM CEST 9:05 PM CEST
Moon 4:21 AM CEST 5:53 PM CEST
Length of Visible Light 13h 37m
Length of Day
12h 16m
Tomorrow will be 5m 14s shorter.
Waning Crescent, 3% of the Moon is Illuminated
Today
Waning Crescent
Sep 24
New
Oct 1
First Quarter
Oct 8
Full
Oct 15
Last Quarter

Yesterday's Extremes

Country Highs Country Lows

Community

WunderPhotos

Upload Photos

1,755,402 photos uploaded!

Nearby

Snow Depth

Not available.

Earthquake Activity

City Distance Mag. Time & Date
No recent earthquake activity has been reported nearby.
Minimum magnitude displayed is 2.5.

Coastal Water Temperatures

Place Temperature
No Stations Reporting

Nearby Weather Stations